sensor_id;sensor_type;location;lat;lon;timestamp;P1;P2;P0
45312;PMS7003;68267;51.540;5.854;2023-04-01T00:07:28;0.48;3.71;2.62
45312;PMS7003;68267;51.540;5.854;2023-04-01T00:20:48;0.36;3.61;2.73
45312;PMS7003;68267;51.540;5.854;2023-04-01T00:34:07;0.36;3.61;3.06
45312;PMS7003;68267;51.540;5.854;2023-04-01T00:47:27;0.6;3.82;3.06
45312;PMS7003;68267;51.540;5.854;2023-04-01T01:00:47;0.6;3.82;3.28
45312;PMS7003;68267;51.540;5.854;2023-04-01T01:14:06;0.12;3.39;2.41
45312;PMS7003;68267;51.540;5.854;2023-04-01T01:27:26;0.01;2.73;2.19
45312;PMS7003;68267;51.540;5.854;2023-04-01T01:40:45;0.01;2.3;2.19
45312;PMS7003;68267;51.540;5.854;2023-04-01T01:54:05;0.01;2.84;2.08
45312;PMS7003;68267;51.540;5.854;2023-04-01T02:07:25;0.01;2.41;2.19
45312;PMS7003;68267;51.540;5.854;2023-04-01T02:20:44;0.12;3.39;3.17
45312;PMS7003;68267;51.540;5.854;2023-04-01T02:34:04;0.24;3.5;3.17
45312;PMS7003;68267;51.540;5.854;2023-04-01T02:47:24;1.08;4.26;3.82
45312;PMS7003;68267;51.540;5.854;2023-04-01T03:00:43;2.4;5.46;5.02
45312;PMS7003;68267;51.540;5.854;2023-04-01T03:14:03;5.41;8.18;7.75
45312;PMS7003;68267;51.540;5.854;2023-04-01T03:27:23;6.49;9.17;8.08
45312;PMS7003;68267;51.540;5.854;2023-04-01T03:40:42;5.41;8.18;7.53
45312;PMS7003;68267;51.540;5.854;2023-04-01T03:54:02;5.17;7.97;7.75
45312;PMS7003;68267;51.540;5.854;2023-04-01T04:07:21;6.85;8.18;7.97
45312;PMS7003;68267;51.540;5.854;2023-04-01T04:20:41;5.41;8.18;7.97
45312;PMS7003;68267;51.540;5.854;2023-04-01T04:34:01;4.93;7.75;7.42
45312;PMS7003;68267;51.540;5.854;2023-04-01T04:47:20;4.69;7.53;6.99
45312;PMS7003;68267;51.540;5.854;2023-04-01T05:00:40;3.24;6.22;6.0
45312;PMS7003;68267;51.540;5.854;2023-04-01T05:14:00;2.16;5.24;4.91
45312;PMS7003;68267;51.540;5.854;2023-04-01T05:27:19;2.76;5.79;5.24
45312;PMS7003;68267;51.540;5.854;2023-04-01T05:40:39;1.68;4.8;4.59
45312;PMS7003;68267;51.540;5.854;2023-04-01T05:53:58;2.4;5.46;5.24
45312;PMS7003;68267;51.540;5.854;2023-04-01T06:07:18;2.52;5.57;5.13
45312;PMS7003;68267;51.540;5.854;2023-04-01T06:20:38;2.52;5.57;5.24
45312;PMS7003;68267;51.540;5.854;2023-04-01T06:33:57;5.05;7.86;7.09
45312;PMS7003;68267;51.540;5.854;2023-04-01T06:47:17;7.33;9.93;9.17
45312;PMS7003;68267;51.540;5.854;2023-04-01T07:00:36;5.89;8.62;8.18
45312;PMS7003;68267;51.540;5.854;2023-04-01T07:13:56;5.77;8.51;7.97
45312;PMS7003;68267;51.540;5.854;2023-04-01T07:27:16;6.73;9.38;8.62
45312;PMS7003;68267;51.540;5.854;2023-04-01T07:40:35;8.29;10.8;9.27
45312;PMS7003;68267;51.540;5.854;2023-04-01T07:53:55;11.65;13.85;12.33
45312;PMS7003;68267;51.540;5.854;2023-04-01T08:07:14;12.25;14.4;12.33
45312;PMS7003;68267;51.540;5.854;2023-04-01T08:20:34;11.29;13.53;11.45
45312;PMS7003;68267;51.540;5.854;2023-04-01T08:33:54;9.73;12.11;10.47
45312;PMS7003;68267;51.540;5.854;2023-04-01T08:47:13;11.41;13.63;12.65
45312;PMS7003;68267;51.540;5.854;2023-04-01T09:00:33;16.21;16.9;15.05
45312;PMS7003;68267;51.540;5.854;2023-04-01T09:13:53;14.77;16.69;14.83
45312;PMS7003;68267;51.540;5.854;2023-04-01T09:27:12;18.37;19.96;18.1
45312;PMS7003;68267;51.540;5.854;2023-04-01T09:40:32;17.65;19.3;18.21
45312;PMS7003;68267;51.540;5.854;2023-04-01T09:53:51;19.33;19.74;17.45
45312;PMS7003;68267;51.540;5.854;2023-04-01T10:07:11;17.53;18.1;15.81
45312;PMS7003;68267;51.540;5.854;2023-04-01T10:20:31;16.45;17.78;16.8
45312;PMS7003;68267;51.540;5.854;2023-04-01T10:33:50;14.89;16.8;15.38
45312;PMS7003;68267;51.540;5.854;2023-04-01T10:47:10;14.05;16.03;15.16
45312;PMS7003;68267;51.540;5.854;2023-04-01T11:00:29;12.97;15.05;14.83
45312;PMS7003;68267;51.540;5.854;2023-04-01T11:13:49;12.49;14.62;14.18
45312;PMS7003;68267;51.540;5.854;2023-04-01T11:27:09;15.25;17.12;16.47
45312;PMS7003;68267;51.540;5.854;2023-04-01T11:40:28;13.45;15.49;14.72
45312;PMS7003;68267;51.540;5.854;2023-04-01T11:53:48;17.05;18.76;17.78
45312;PMS7003;68267;51.540;5.854;2023-04-01T12:07:07;18.97;20.5;18.76
45312;PMS7003;68267;51.540;5.854;2023-04-01T12:20:27;18.37;19.41;18.21
45312;PMS7003;68267;51.540;5.854;2023-04-01T12:33:47;17.05;18.76;17.89
45312;PMS7003;68267;51.540;5.854;2023-04-01T12:47:06;14.77;16.69;16.03
45312;PMS7003;68267;51.540;5.854;2023-04-01T13:00:26;12.37;14.51;13.85
45312;PMS7003;68267;51.540;5.854;2023-04-01T13:13:46;12.73;14.83;14.07
45312;PMS7003;68267;51.540;5.854;2023-04-01T13:27:05;11.77;13.96;12.98
45312;PMS7003;68267;51.540;5.854;2023-04-01T13:40:25;14.17;15.27;14.62
45312;PMS7003;68267;51.540;5.854;2023-04-01T13:53:44;14.53;16.47;15.92
45312;PMS7003;68267;51.540;5.854;2023-04-01T14:07:04;9.37;11.78;11.13
45312;PMS7003;68267;51.540;5.854;2023-04-01T14:20:24;10.69;12.98;12.65
45312;PMS7003;68267;51.540;5.854;2023-04-01T14:33:43;11.17;13.42;12.65
45312;PMS7003;68267;51.540;5.854;2023-04-01T14:47:03;9.85;12.22;12.11
45312;PMS7003;68267;51.540;5.854;2023-04-01T15:00:23;12.01;14.18;13.42
45312;PMS7003;68267;51.540;5.854;2023-04-01T15:13:42;12.13;14.29;13.74
45312;PMS7003;68267;51.540;5.854;2023-04-01T15:27:02;11.05;13.31;12.65
45312;PMS7003;68267;51.540;5.854;2023-04-01T15:40:21;11.17;13.42;12.98
45312;PMS7003;68267;51.540;5.854;2023-04-01T15:53:41;12.49;14.62;14.18
45312;PMS7003;68267;51.540;5.854;2023-04-01T16:07:01;12.13;14.29;13.85
45312;PMS7003;68267;51.540;5.854;2023-04-01T16:20:20;14.53;16.47;15.6
45312;PMS7003;68267;51.540;5.854;2023-04-01T16:33:40;12.73;14.83;14.4
45312;PMS7003;68267;51.540;5.854;2023-04-01T16:46:59;13.33;15.38;14.4
45312;PMS7003;68267;51.540;5.854;2023-04-01T17:00:19;13.57;15.6;14.29
45312;PMS7003;68267;51.540;5.854;2023-04-01T17:13:39;13.93;15.92;14.83
45312;PMS7003;68267;51.540;5.854;2023-04-01T17:26:58;12.85;14.94;14.07
45312;PMS7003;68267;51.540;5.854;2023-04-01T17:40:18;12.01;14.18;13.63
45312;PMS7003;68267;51.540;5.854;2023-04-01T17:53:38;9.13;11.56;10.91
45312;PMS7003;68267;51.540;5.854;2023-04-01T18:06:57;5.89;8.62;8.4
45312;PMS7003;68267;51.540;5.854;2023-04-01T18:20:17;2.52;5.57;5.13
45312;PMS7003;68267;51.540;5.854;2023-04-01T18:33:36;2.88;5.9;5.79
45312;PMS7003;68267;51.540;5.854;2023-04-01T18:46:56;1.8;4.91;4.91
45312;PMS7003;68267;51.540;5.854;2023-04-01T19:00:16;3.0;6.0;5.9
45312;PMS7003;68267;51.540;5.854;2023-04-01T19:13:35;3.36;6.33;6.33
45312;PMS7003;68267;51.540;5.854;2023-04-01T19:26:55;3.85;6.77;6.77
45312;PMS7003;68267;51.540;5.854;2023-04-01T19:40:14;5.77;8.51;8.29
45312;PMS7003;68267;51.540;5.854;2023-04-01T19:53:34;7.33;9.93;9.6
45312;PMS7003;68267;51.540;5.854;2023-04-01T20:06:54;7.93;10.47;10.26
45312;PMS7003;68267;51.540;5.854;2023-04-01T20:20:13;7.21;9.82;9.38
45312;PMS7003;68267;51.540;5.854;2023-04-01T20:33:33;6.97;9.6;9.6
45312;PMS7003;68267;51.540;5.854;2023-04-01T20:46:53;6.01;8.73;8.73
45312;PMS7003;68267;51.540;5.854;2023-04-01T21:00:12;5.53;8.29;8.29
45312;PMS7003;68267;51.540;5.854;2023-04-01T21:13:32;6.13;8.84;8.62
45312;PMS7003;68267;51.540;5.854;2023-04-01T21:26:51;3.85;6.77;6.77
45312;PMS7003;68267;51.540;5.854;2023-04-01T21:40:11;6.73;9.38;9.06
45312;PMS7003;68267;51.540;5.854;2023-04-01T21:53:31;5.77;8.51;8.08
45312;PMS7003;68267;51.540;5.854;2023-04-01T22:06:50;6.73;9.38;9.38
45312;PMS7003;68267;51.540;5.854;2023-04-01T22:20:10;7.09;9.71;9.6
45312;PMS7003;68267;51.540;5.854;2023-04-01T22:33:30;3.48;6.44;6.22
45312;PMS7003;68267;51.540;5.854;2023-04-01T22:46:49;8.17;7.31;7.2
45312;PMS7003;68267;51.540;5.854;2023-04-01T23:00:09;5.41;8.18;7.64
45312;PMS7003;68267;51.540;5.854;2023-04-01T23:13:28;4.81;7.64;7.64
45312;PMS7003;68267;51.540;5.854;2023-04-01T23:26:48;6.85;9.49;9.27
45312;PMS7003;68267;51.540;5.854;2023-04-01T23:40:08;5.89;8.62;8.51
45312;PMS7003;68267;51.540;5.854;2023-04-01T23:53:27;4.45;7.31;7.09
